Time;durP1;ratioP1;P1;durP2;ratioP2;P2;SDS_P1;SDS_P2;PMS_P1;PMS_P2;Temp;Humidity;BMP_temperature;BMP_pressure;BME280_temperature;BME280_humidity;BME280_pressure;Samples;Min_cycle;Max_cycle;Signal;HPM_P1;HPM_P2
2022/06/10 00:00:20;;;;;;;11.65;5.05;;;11.90;99.90;;;;;;5072849;28;20122;-86
2022/06/10 00:02:46;;;;;;;8.52;4.95;;;11.90;99.90;;;;;;5072533;28;20480;-86
2022/06/10 00:05:18;;;;;;;9.00;4.60;;;11.90;99.90;;;;;;5072595;28;20128;-86
2022/06/10 00:07:44;;;;;;;9.80;5.10;;;11.90;99.90;;;;;;5072499;28;20049;-86
2022/06/10 00:10:13;;;;;;;9.65;4.70;;;11.90;99.90;;;;;;5072778;28;20082;-86
2022/06/10 00:12:38;;;;;;;13.60;4.85;;;11.80;99.90;;;;;;5072818;28;20047;-86
2022/06/10 00:15:05;;;;;;;10.52;5.40;;;11.80;99.90;;;;;;5055646;28;20040;-86
2022/06/10 00:17:32;;;;;;;9.68;4.40;;;11.80;99.90;;;;;;5055746;28;20131;-86
2022/06/10 00:19:58;;;;;;;9.68;4.75;;;11.80;99.90;;;;;;5073685;28;20086;-86
2022/06/10 00:22:24;;;;;;;10.32;5.15;;;11.90;99.90;;;;;;5072566;28;20089;-86
2022/06/10 00:24:51;;;;;;;13.65;4.93;;;11.70;99.90;;;;;;5073721;28;20045;-85
2022/06/10 00:27:18;;;;;;;12.80;5.60;;;11.80;99.90;;;;;;5072235;28;20508;-86
2022/06/10 00:29:44;;;;;;;11.02;5.60;;;11.70;99.90;;;;;;5074065;28;20544;-85
2022/06/10 00:32:09;;;;;;;10.07;5.32;;;11.70;99.90;;;;;;5073633;28;20033;-86
2022/06/10 00:34:36;;;;;;;10.60;4.80;;;11.90;99.90;;;;;;5073539;28;20488;-86
2022/06/10 00:37:06;;;;;;;10.35;5.10;;;11.70;99.90;;;;;;5072294;28;20115;-86
2022/06/10 00:39:34;;;;;;;12.23;5.90;;;11.60;99.90;;;;;;5072402;28;20049;-85
2022/06/10 00:42:04;;;;;;;13.32;5.25;;;11.60;99.90;;;;;;5076386;28;20111;-86
2022/06/10 00:44:46;;;;;;;10.13;5.28;;;11.60;99.90;;;;;;5076177;28;20059;-86
2022/06/10 00:47:15;;;;;;;10.82;5.18;;;11.60;99.90;;;;;;5076313;28;20051;-85
2022/06/10 00:49:46;;;;;;;10.95;5.22;;;11.60;99.90;;;;;;5075927;28;20499;-86
2022/06/10 00:52:22;;;;;;;11.73;6.05;;;11.60;99.90;;;;;;5059328;28;20040;-85
2022/06/10 00:54:49;;;;;;;9.48;5.13;;;11.50;99.90;;;;;;5076007;28;20044;-86
2022/06/10 00:57:20;;;;;;;9.15;5.05;;;11.50;99.90;;;;;;5075883;28;20056;-86
2022/06/10 00:59:50;;;;;;;7.85;4.90;;;11.40;99.90;;;;;;5059291;28;20080;-85
2022/06/10 01:02:24;;;;;;;10.20;5.45;;;11.40;99.90;;;;;;5077196;28;20044;-86
2022/06/10 01:04:51;;;;;;;9.30;5.40;;;11.50;99.90;;;;;;5075637;28;20045;-86
2022/06/10 01:07:21;;;;;;;15.40;5.38;;;11.40;99.90;;;;;;5076166;28;20124;-86
2022/06/10 01:09:49;;;;;;;13.55;5.43;;;11.60;99.90;;;;;;5075795;28;20048;-86
2022/06/10 01:12:17;;;;;;;9.88;4.93;;;11.30;99.90;;;;;;5075760;28;20086;-86
2022/06/10 01:15:03;;;;;;;14.25;5.28;;;11.30;99.90;;;;;;5075647;28;20091;-86
2022/06/10 01:17:56;;;;;;;9.68;5.28;;;11.30;99.90;;;;;;5075542;28;20407;-85
2022/06/10 01:20:31;;;;;;;11.25;5.57;;;11.20;99.90;;;;;;5075482;28;20416;-86
2022/06/10 01:22:56;;;;;;;8.57;5.13;;;11.30;99.90;;;;;;5076792;28;20087;-85
2022/06/10 01:25:28;;;;;;;11.00;5.65;;;11.30;99.90;;;;;;5075794;28;20560;-85
2022/06/10 01:28:29;;;;;;;16.55;5.53;;;11.30;99.90;;;;;;5076747;28;20415;-86
2022/06/10 01:31:21;;;;;;;12.98;5.25;;;11.20;99.90;;;;;;5018306;28;20111;-86
2022/06/10 01:34:16;;;;;;;13.18;5.65;;;11.20;99.90;;;;;;5017922;28;20049;-86
2022/06/10 01:37:06;;;;;;;11.35;5.03;;;11.20;99.90;;;;;;5001683;28;20136;-86
2022/06/10 01:39:53;;;;;;;11.77;5.25;;;11.10;99.90;;;;;;5017896;28;20115;-85
2022/06/10 01:42:47;;;;;;;10.23;5.13;;;11.20;99.90;;;;;;5034307;28;20129;-86
2022/06/10 01:45:35;;;;;;;11.85;5.22;;;11.10;99.90;;;;;;5017767;28;20138;-85
2022/06/10 01:48:15;;;;;;;12.95;4.65;;;11.10;99.90;;;;;;5017610;28;20147;-86
2022/06/10 01:50:54;;;;;;;11.45;4.90;;;11.10;99.90;;;;;;5017665;28;20045;-86
2022/06/10 01:53:29;;;;;;;10.15;5.10;;;11.10;99.90;;;;;;5016925;28;20131;-86
2022/06/10 01:56:01;;;;;;;14.57;5.25;;;11.10;99.90;;;;;;5017596;28;20057;-86
2022/06/10 01:58:36;;;;;;;11.13;4.38;;;11.10;99.90;;;;;;5001496;28;20041;-85
2022/06/10 02:01:10;;;;;;;11.88;4.68;;;11.10;99.90;;;;;;5034072;28;20057;-86
2022/06/10 02:03:43;;;;;;;11.32;5.22;;;11.00;99.90;;;;;;5034326;28;20139;-86
2022/06/10 02:06:16;;;;;;;15.77;5.70;;;11.20;99.90;;;;;;5017364;28;20137;-85
2022/06/10 02:08:52;;;;;;;12.95;4.72;;;11.20;99.90;;;;;;5064107;28;20065;-86
2022/06/10 02:11:21;;;;;;;15.32;5.60;;;11.00;99.90;;;;;;5074794;28;20045;-86
2022/06/10 02:13:56;;;;;;;12.65;5.20;;;11.00;99.90;;;;;;5074462;28;20056;-85
2022/06/10 02:16:28;;;;;;;;;;;11.00;99.90;;;;;;5058997;28;20108;-86
2022/06/10 02:19:09;;;;;;;11.25;4.80;;;11.00;99.90;;;;;;5075354;28;20390;-86
2022/06/10 02:21:49;;;;;;;12.25;4.70;;;11.00;99.90;;;;;;5075523;28;20517;-86
2022/06/10 02:24:25;;;;;;;11.95;5.15;;;10.90;99.90;;;;;;5074728;28;20391;-86
2022/06/10 02:26:52;;;;;;;13.05;4.82;;;10.90;99.90;;;;;;5074201;28;20040;-86
2022/06/10 02:29:53;;;;;;;13.52;4.90;;;11.00;99.90;;;;;;5074257;28;20171;-86
2022/06/10 02:32:19;;;;;;;13.27;5.18;;;10.90;99.90;;;;;;5074267;28;20044;-86
2022/06/10 02:34:45;;;;;;;11.20;5.32;;;10.80;99.90;;;;;;5073888;28;20059;-86
2022/06/10 02:37:30;;;;;;;13.45;4.93;;;10.80;99.90;;;;;;5057419;28;20090;-86
2022/06/10 02:40:01;;;;;;;;;;;10.80;99.90;;;;;;5075899;28;20040;-86
2022/06/10 02:42:42;;;;;;;10.80;5.43;;;11.20;99.90;;;;;;5075355;28;19966;-85
2022/06/10 02:45:14;;;;;;;7.93;4.60;;;10.80;99.90;;;;;;5075432;28;20056;-86
2022/06/10 02:47:45;;;;;;;11.50;4.78;;;10.80;99.90;;;;;;5076399;28;20045;-86
2022/06/10 02:50:13;;;;;;;8.95;5.10;;;10.80;99.90;;;;;;5057457;28;20040;-86
2022/06/10 02:52:41;;;;;;;10.35;5.00;;;10.70;99.90;;;;;;5073880;28;20127;-85
2022/06/10 02:55:12;;;;;;;11.95;5.57;;;11.00;99.90;;;;;;5073752;28;20044;-86
2022/06/10 03:03:50;;;;;;;9.77;4.88;;;10.70;99.90;;;;;;5073393;28;20461;-86
2022/06/10 03:06:25;;;;;;;13.07;5.10;;;10.60;99.90;;;;;;5073651;28;20079;-85
2022/06/10 03:09:22;;;;;;;15.35;4.90;;;10.70;99.90;;;;;;5056839;28;20084;-86
2022/06/10 03:12:02;;;;;;;10.73;5.07;;;10.70;99.90;;;;;;5073658;28;20114;-86
2022/06/10 03:14:31;;;;;;;8.32;4.45;;;10.70;99.90;;;;;;5073430;28;20098;-86
2022/06/10 03:17:21;;;;;;;11.13;5.10;;;10.70;99.90;;;;;;5073294;28;20094;-85
2022/06/10 03:20:08;;;;;;;10.50;4.72;;;10.70;99.90;;;;;;5073001;28;20535;-86
2022/06/10 03:22:45;;;;;;;11.55;4.50;;;10.60;99.90;;;;;;5073361;28;20056;-85
2022/06/10 03:25:26;;;;;;;10.93;4.78;;;10.70;99.90;;;;;;5073632;28;20480;-86
2022/06/10 03:28:18;;;;;;;11.63;5.10;;;10.70;99.90;;;;;;5056824;28;20515;-86
2022/06/10 03:31:00;;;;;;;10.75;4.65;;;10.70;99.90;;;;;;5073359;28;20052;-86
2022/06/10 03:33:42;;;;;;;14.02;4.32;;;10.70;99.90;;;;;;5073167;28;20491;-85
2022/06/10 03:36:11;;;;;;;13.60;4.80;;;10.70;99.90;;;;;;5056206;28;20051;-86
2022/06/10 03:38:45;;;;;;;12.32;4.22;;;10.70;99.90;;;;;;5072903;28;20072;-85
2022/06/10 03:41:25;;;;;;;10.73;4.53;;;10.70;99.90;;;;;;5073170;28;20040;-85
2022/06/10 03:43:52;;;;;;;10.90;4.22;;;10.90;99.90;;;;;;5072890;28;20498;-86
2022/06/10 03:46:22;;;;;;;9.60;4.50;;;10.80;99.90;;;;;;5073937;28;20068;-86
2022/06/10 03:48:49;;;;;;;15.57;4.40;;;10.80;99.90;;;;;;5072958;28;20378;-86
2022/06/10 03:51:17;;;;;;;11.52;4.43;;;10.80;99.90;;;;;;5072682;28;20076;-86
2022/06/10 03:53:44;;;;;;;13.95;4.45;;;10.90;99.90;;;;;;5056105;28;20049;-86
2022/06/10 03:56:11;;;;;;;10.43;4.40;;;11.20;99.90;;;;;;5055975;28;20047;-85
2022/06/10 03:58:37;;;;;;;11.98;4.45;;;10.90;99.90;;;;;;5072708;28;20487;-86
2022/06/10 04:01:04;;;;;;;9.25;4.50;;;11.00;99.90;;;;;;5072260;28;20128;-85
2022/06/10 04:03:30;;;;;;;12.55;4.70;;;11.10;99.90;;;;;;5072425;28;20557;-85
2022/06/10 04:05:56;;;;;;;11.35;4.65;;;11.10;99.90;;;;;;5072449;28;20040;-85
2022/06/10 04:08:21;;;;;;;14.05;4.90;;;11.50;99.90;;;;;;5072589;28;20053;-86
2022/06/10 04:10:47;;;;;;;9.27;4.72;;;11.40;99.90;;;;;;5072808;28;20052;-86
2022/06/10 04:13:17;;;;;;;13.55;5.10;;;11.40;99.90;;;;;;5056147;28;20563;-86
2022/06/10 04:15:44;;;;;;;13.23;4.97;;;11.50;99.90;;;;;;5071846;28;20430;-86
2022/06/10 04:18:10;;;;;;;9.23;4.75;;;11.50;99.90;;;;;;5073739;28;20102;-86
2022/06/10 04:20:38;;;;;;;11.85;5.00;;;11.70;99.90;;;;;;5073614;28;20044;-87
2022/06/10 04:23:05;;;;;;;13.02;4.72;;;11.80;99.90;;;;;;5073776;28;20135;-86
2022/06/10 04:25:32;;;;;;;14.77;4.95;;;11.90;99.90;;;;;;5072425;28;20075;-86
2022/06/10 04:27:59;;;;;;;14.90;4.68;;;12.00;99.90;;;;;;5072336;28;20048;-86
2022/06/10 04:30:32;;;;;;;11.93;4.70;;;12.10;99.90;;;;;;5072253;28;20471;-85
2022/06/10 04:32:59;;;;;;;15.52;4.85;;;12.10;99.90;;;;;;5072176;28;20045;-86
2022/06/10 04:35:26;;;;;;;10.90;4.47;;;12.30;99.90;;;;;;5055588;28;20080;-86
2022/06/10 04:37:53;;;;;;;14.43;5.20;;;12.60;99.90;;;;;;5072298;28;20091;-86
2022/06/10 04:40:22;;;;;;;16.70;4.90;;;12.30;99.90;;;;;;5072436;28;20067;-86
2022/06/10 04:42:49;;;;;;;13.65;5.93;;;12.50;99.90;;;;;;5072247;28;20083;-86
2022/06/10 04:45:18;;;;;;;11.95;5.03;;;12.40;99.90;;;;;;5055386;28;20033;-86
2022/06/10 04:47:43;;;;;;;12.55;4.57;;;12.70;99.90;;;;;;5055332;28;20052;-86
2022/06/10 04:50:12;;;;;;;10.57;4.97;;;12.50;99.90;;;;;;5072128;28;20127;-85
2022/06/10 04:52:38;;;;;;;13.27;4.68;;;12.60;99.90;;;;;;5072169;28;20041;-86
2022/06/10 04:55:05;;;;;;;13.73;5.40;;;12.70;99.90;;;;;;5072162;28;20059;-86
2022/06/10 04:57:32;;;;;;;12.68;4.63;;;12.70;99.90;;;;;;5071963;28;20094;-85
2022/06/10 04:59:57;;;;;;;11.80;5.22;;;12.70;99.90;;;;;;5055233;28;20041;-85
2022/06/10 05:02:23;;;;;;;12.82;4.97;;;12.90;99.90;;;;;;5073365;28;20047;-86
2022/06/10 05:04:48;;;;;;;12.50;5.03;;;12.90;99.90;;;;;;5073208;28;20049;-86
2022/06/10 05:07:14;;;;;;;8.82;4.25;;;12.90;99.90;;;;;;5072256;28;20036;-88
2022/06/10 05:09:40;;;;;;;11.30;4.70;;;13.00;99.90;;;;;;5055559;28;20102;-86
2022/06/10 05:12:06;;;;;;;13.68;4.40;;;13.00;99.90;;;;;;5071768;28;20472;-86
2022/06/10 05:14:32;;;;;;;15.85;4.82;;;13.20;99.90;;;;;;5055069;28;20094;-86
2022/06/10 05:16:57;;;;;;;12.27;4.60;;;13.20;99.90;;;;;;5055149;28;20400;-86
2022/06/10 05:19:24;;;;;;;10.20;4.65;;;13.30;99.90;;;;;;5071580;28;20441;-86
2022/06/10 05:21:50;;;;;;;12.88;4.95;;;13.40;99.90;;;;;;5072076;28;20488;-86
2022/06/10 05:24:16;;;;;;;10.95;4.65;;;13.60;99.90;;;;;;5071832;28;20047;-85
2022/06/10 05:26:42;;;;;;;11.40;4.80;;;13.40;99.90;;;;;;5073538;28;20406;-85
2022/06/10 05:29:07;;;;;;;16.83;5.05;;;13.40;99.90;;;;;;5058828;28;20040;-86
2022/06/10 05:31:33;;;;;;;15.27;5.70;;;13.50;99.90;;;;;;5075305;28;20068;-86
2022/06/10 05:36:43;;;;;;;12.45;5.10;;;13.50;99.90;;;;;;5076955;28;20088;-85
2022/06/10 05:39:09;;;;;;;12.10;4.78;;;13.60;99.90;;;;;;5077336;28;20052;-86
2022/06/10 05:44:19;;;;;;;14.05;4.97;;;13.80;99.90;;;;;;5077123;28;20127;-86
2022/06/10 05:46:45;;;;;;;16.23;6.18;;;13.70;99.90;;;;;;5075142;28;20099;-85
2022/06/10 05:49:11;;;;;;;14.40;5.57;;;13.80;99.90;;;;;;5075025;28;20140;-86
2022/06/10 05:51:36;;;;;;;16.08;4.60;;;13.80;99.90;;;;;;5058404;28;20036;-86
2022/06/10 05:54:03;;;;;;;10.70;5.05;;;13.80;99.90;;;;;;5076256;28;20044;-86
2022/06/10 05:56:29;;;;;;;14.65;4.95;;;13.90;99.90;;;;;;5074801;28;20049;-85
2022/06/10 05:58:55;;;;;;;10.85;4.47;;;14.00;99.90;;;;;;5074951;28;20056;-86
2022/06/10 06:01:21;;;;;;;11.13;4.70;;;14.00;99.90;;;;;;5058126;28;20040;-85
2022/06/10 06:03:47;;;;;;;10.38;4.40;;;14.10;99.90;;;;;;5057964;28;20044;-85
2022/06/10 06:06:14;;;;;;;14.48;5.00;;;14.10;99.90;;;;;;5075104;28;20052;-85
2022/06/10 06:08:39;;;;;;;16.17;4.72;;;14.20;99.90;;;;;;5075970;28;20076;-86
2022/06/10 06:11:05;;;;;;;12.80;4.70;;;14.30;99.90;;;;;;5074578;28;20105;-85
2022/06/10 06:13:31;;;;;;;13.48;4.85;;;14.40;99.90;;;;;;5074577;28;20036;-86
2022/06/10 06:15:58;;;;;;;17.33;5.18;;;14.50;99.90;;;;;;5074345;28;20045;-86
2022/06/10 06:18:23;;;;;;;13.02;5.68;;;14.70;99.90;;;;;;5057766;28;20498;-86
2022/06/10 06:20:49;;;;;;;10.93;4.13;;;14.60;99.90;;;;;;5075676;28;20048;-86
2022/06/10 06:23:15;;;;;;;14.57;4.93;;;14.60;99.90;;;;;;5074636;28;20098;-86
2022/06/10 06:25:41;;;;;;;12.30;4.57;;;14.70;99.90;;;;;;5074314;28;20044;-86
2022/06/10 06:28:07;;;;;;;9.55;4.68;;;14.80;99.90;;;;;;5074558;28;20048;-85
2022/06/10 06:30:36;;;;;;;11.25;5.10;;;14.80;99.90;;;;;;5074283;28;20040;-86
2022/06/10 06:33:06;;;;;;;11.15;5.20;;;14.90;99.90;;;;;;5074558;28;20091;-86
2022/06/10 06:35:34;;;;;;;14.85;6.22;;;14.90;99.90;;;;;;5074449;28;20074;-85
2022/06/10 06:38:01;;;;;;;15.75;5.47;;;14.90;99.90;;;;;;5073484;28;20102;-88
2022/06/10 06:40:27;;;;;;;14.10;5.22;;;15.10;99.90;;;;;;5074302;28;20131;-88
2022/06/10 06:42:53;;;;;;;15.27;5.13;;;15.00;99.90;;;;;;5074231;28;20434;-86
2022/06/10 06:45:20;;;;;;;13.27;5.53;;;15.00;99.90;;;;;;5074177;28;20052;-86
2022/06/10 06:47:46;;;;;;;17.08;5.40;;;15.00;99.90;;;;;;5074000;28;20041;-86
2022/06/10 06:50:15;;;;;;;14.35;6.15;;;15.00;99.90;;;;;;5073933;28;20056;-86
2022/06/10 06:52:42;;;;;;;12.32;5.30;;;15.00;99.90;;;;;;5074192;28;20045;-87
2022/06/10 06:55:08;;;;;;;14.35;5.05;;;15.00;99.90;;;;;;5074025;28;20112;-88
2022/06/10 06:57:34;;;;;;;14.35;5.57;;;15.10;99.90;;;;;;5073715;28;20048;-86
2022/06/10 07:00:07;;;;;;;13.32;5.53;;;15.10;99.90;;;;;;5073883;28;20040;-86
2022/06/10 07:02:34;;;;;;;12.43;5.10;;;15.20;99.90;;;;;;5073926;28;20048;-87
2022/06/10 07:04:59;;;;;;;11.05;5.82;;;15.10;99.90;;;;;;5073533;28;20045;-87
2022/06/10 07:07:25;;;;;;;15.20;6.80;;;15.10;99.90;;;;;;5057004;28;20402;-89
2022/06/10 07:09:51;;;;;;;14.13;6.28;;;15.30;99.90;;;;;;5074822;28;20032;-87
2022/06/10 07:12:16;;;;;;;10.60;5.32;;;15.20;99.90;;;;;;5057155;28;20083;-86
2022/06/10 07:14:42;;;;;;;13.52;5.70;;;15.20;99.90;;;;;;5056808;28;20041;-89
2022/06/10 07:17:08;;;;;;;15.15;5.47;;;15.30;99.90;;;;;;5073329;28;20045;-85
2022/06/10 07:19:34;;;;;;;13.88;6.35;;;15.40;99.90;;;;;;5074714;28;20044;-85
2022/06/10 07:21:59;;;;;;;18.08;6.75;;;15.40;99.90;;;;;;5074632;28;20183;-85
2022/06/10 07:24:25;;;;;;;13.52;6.55;;;15.30;99.90;;;;;;5073528;28;20048;-85
2022/06/10 07:26:51;;;;;;;17.33;6.55;;;15.40;99.90;;;;;;5073138;28;20041;-85
2022/06/10 07:29:17;;;;;;;12.70;6.03;;;15.50;99.90;;;;;;5073181;28;20044;-85
2022/06/10 07:31:44;;;;;;;11.43;5.32;;;15.50;99.90;;;;;;5073175;28;20055;-85
2022/06/10 07:34:10;;;;;;;13.52;5.82;;;15.50;99.90;;;;;;5072944;28;20051;-85
2022/06/10 07:36:37;;;;;;;12.35;5.40;;;15.60;99.90;;;;;;5056131;28;20049;-84
2022/06/10 07:39:03;;;;;;;12.80;5.15;;;15.60;99.90;;;;;;5074419;28;20044;-85
2022/06/10 07:44:12;;;;;;;12.93;4.80;;;15.70;99.90;;;;;;5074042;28;20128;-85
2022/06/10 07:46:38;;;;;;;12.20;4.75;;;15.70;99.90;;;;;;5073158;28;20123;-85
2022/06/10 07:49:03;;;;;;;10.65;4.53;;;15.80;99.90;;;;;;5073619;28;20045;-86
2022/06/10 07:51:29;;;;;;;10.52;4.40;;;15.80;99.90;;;;;;5072226;28;20040;-86
2022/06/10 07:53:55;;;;;;;12.85;4.80;;;15.80;99.90;;;;;;5073166;28;20464;-86
2022/06/10 07:56:22;;;;;;;13.30;5.03;;;15.80;99.90;;;;;;5072525;28;20128;-87
2022/06/10 07:58:49;;;;;;;8.07;4.40;;;15.90;99.90;;;;;;5074437;28;20048;-86
2022/06/10 08:01:16;;;;;;;9.20;4.65;;;16.00;99.90;;;;;;5075330;28;20037;-86
2022/06/10 08:03:42;;;;;;;10.40;4.30;;;16.10;99.90;;;;;;5072614;28;20083;-85
2022/06/10 08:06:08;;;;;;;11.05;4.55;;;16.20;99.90;;;;;;5072786;28;20058;-85
2022/06/10 08:08:34;;;;;;;9.73;3.95;;;16.40;99.90;;;;;;5072942;28;20395;-86
2022/06/10 08:11:00;;;;;;;7.80;4.07;;;16.50;99.90;;;;;;5072505;28;20049;-88
2022/06/10 08:13:27;;;;;;;10.95;4.47;;;16.70;99.90;;;;;;5073079;28;20040;-87
2022/06/10 08:15:53;;;;;;;10.20;4.05;;;16.90;99.90;;;;;;5072566;28;20051;-88
2022/06/10 08:18:20;;;;;;;10.93;3.92;;;17.00;99.90;;;;;;5072555;28;20110;-87
2022/06/10 08:23:33;;;;;;;15.88;4.47;;;17.10;99.90;;;;;;5072340;28;20056;-87
2022/06/10 08:26:01;;;;;;;11.45;4.30;;;17.20;99.90;;;;;;5073529;28;20472;-87
2022/06/10 08:28:27;;;;;;;11.25;4.00;;;17.20;99.90;;;;;;5072508;28;20048;-87
2022/06/10 08:30:53;;;;;;;10.75;3.90;;;17.20;99.90;;;;;;5072901;28;20448;-93
2022/06/10 08:33:19;;;;;;;12.60;4.30;;;17.20;99.90;;;;;;5073786;28;20044;-88
2022/06/10 08:35:46;;;;;;;14.93;4.50;;;17.10;99.90;;;;;;5074211;28;20036;-87
2022/06/10 08:38:14;;;;;;;8.75;4.28;;;17.00;99.90;;;;;;5076163;28;20048;-87
2022/06/10 08:40:52;;;;;;;11.80;4.65;;;17.10;99.90;;;;;;5074830;28;20048;-86
2022/06/10 08:43:52;;;;;;;12.32;4.47;;;17.10;99.90;;;;;;5074783;28;20087;-86
2022/06/10 08:46:45;;;;;;;9.85;4.22;;;17.20;99.90;;;;;;5073023;28;20055;-87
2022/06/10 08:49:54;;;;;;;10.05;4.72;;;17.50;99.90;;;;;;5072629;28;20116;-86
2022/06/10 08:52:39;;;;;;;10.52;4.95;;;17.50;99.90;;;;;;5054047;28;20099;-87
2022/06/10 08:55:15;;;;;;;15.90;5.73;;;17.60;99.90;;;;;;5056316;28;20500;-89
2022/06/10 08:57:45;;;;;;;11.00;4.53;;;17.40;99.90;;;;;;5071910;28;20406;-87
2022/06/10 09:00:30;;;;;;;15.27;4.53;;;17.30;99.90;;;;;;5072502;28;20060;-88
2022/06/10 09:03:03;;;;;;;14.43;4.95;;;17.20;99.90;;;;;;5076061;28;20074;-87
2022/06/10 09:05:29;;;;;;;14.50;4.70;;;17.20;99.90;;;;;;5075764;28;20460;-86
2022/06/10 09:08:01;;;;;;;11.85;4.53;;;17.20;99.90;;;;;;5075847;28;20079;-89
2022/06/10 09:10:46;;;;;;;14.48;4.60;;;17.20;99.90;;;;;;5076197;28;20048;-90
2022/06/10 09:13:25;;;;;;;9.85;4.50;;;17.20;99.90;;;;;;5075829;28;20433;-89
2022/06/10 09:16:21;;;;;;;12.20;4.60;;;17.20;99.90;;;;;;5075714;28;20041;-87
2022/06/10 09:19:09;;;;;;;20.00;5.10;;;17.20;99.90;;;;;;5075838;28;20044;-87
2022/06/10 09:22:15;;;;;;;15.73;5.45;;;17.20;99.90;;;;;;5058741;28;20052;-89
2022/06/10 09:25:02;;;;;;;10.77;5.20;;;17.20;99.90;;;;;;5075706;28;20060;-88
2022/06/10 09:27:40;;;;;;;12.07;4.75;;;17.30;99.90;;;;;;5077469;28;20099;-87
2022/06/10 09:30:09;;;;;;;9.65;4.35;;;17.40;99.90;;;;;;5075741;28;20052;-85
2022/06/10 09:33:30;;;;;;;10.77;5.47;;;17.50;99.90;;;;;;5058879;28;20484;-86
2022/06/10 09:36:11;;;;;;;14.20;5.25;;;17.60;99.90;;;;;;5018150;28;20052;-87
2022/06/10 09:38:45;;;;;;;9.98;4.65;;;17.70;99.90;;;;;;5018296;28;20374;-85
2022/06/10 09:41:44;;;;;;;13.65;5.45;;;17.70;99.90;;;;;;5017911;28;20045;-87
2022/06/10 09:44:12;;;;;;;8.85;4.50;;;17.80;99.90;;;;;;5018136;28;20140;-86
2022/06/10 09:46:52;;;;;;;9.50;4.60;;;17.80;99.90;;;;;;5034744;28;20438;-90
2022/06/10 09:49:53;;;;;;;7.32;3.60;;;17.80;99.90;;;;;;5035727;28;20061;-88
2022/06/10 09:52:27;;;;;;;8.18;4.10;;;17.80;99.90;;;;;;4979308;28;20622;-86
2022/06/10 09:55:26;;;;;;;7.22;3.65;;;17.90;99.90;;;;;;4979002;28;20112;-88
2022/06/10 09:58:04;;;;;;;6.97;3.80;;;18.10;99.90;;;;;;4979283;28;20066;-90
2022/06/10 10:00:43;;;;;;;7.20;4.07;;;18.20;99.90;;;;;;4994964;28;20061;-85
2022/06/10 10:03:28;;;;;;;6.65;3.70;;;18.40;99.90;;;;;;4995055;28;20125;-88
2022/06/10 10:06:21;;;;;;;8.82;3.90;;;18.50;99.90;;;;;;4994986;28;20131;-87
2022/06/10 10:09:25;;;;;;;6.45;3.80;;;18.70;99.90;;;;;;4994813;28;20046;-91
2022/06/10 10:12:19;;;;;;;10.35;4.40;;;18.70;99.90;;;;;;5025135;28;20053;-87
2022/06/10 10:14:59;;;;;;;8.10;4.05;;;18.80;99.90;;;;;;5010485;28;20460;-86
2022/06/10 10:17:28;;;;;;;6.32;3.45;;;18.90;99.90;;;;;;5017767;28;20133;-87
2022/06/10 10:20:28;;;;;;;8.88;4.25;;;18.90;99.90;;;;;;5003656;28;20073;-90
2022/06/10 10:23:11;;;;;;;10.23;5.22;;;18.80;99.90;;;;;;5002289;28;20059;-87
2022/06/10 10:25:40;;;;;;;11.02;5.32;;;18.70;99.90;;;;;;5042559;28;20048;-89
2022/06/10 10:28:17;;;;;;;10.57;5.00;;;18.80;99.90;;;;;;5074531;28;20044;-86
2022/06/10 10:30:49;;;;;;;7.95;4.75;;;19.20;99.90;;;;;;5074263;28;20040;-89
2022/06/10 10:33:15;;;;;;;11.95;4.70;;;19.60;99.90;;;;;;5074466;28;20064;-85
2022/06/10 10:35:53;;;;;;;9.35;4.80;;;19.80;99.90;;;;;;5057988;28;20492;-87
2022/06/10 10:38:37;;;;;;;10.50;4.50;;;20.00;99.90;;;;;;5057588;28;20080;-87
2022/06/10 10:41:35;;;;;;;9.30;4.20;;;19.90;99.90;;;;;;5074251;28;20119;-87
2022/06/10 10:44:08;;;;;;;10.35;4.07;;;19.70;99.90;;;;;;5062136;28;20458;-86
2022/06/10 10:46:56;;;;;;;10.95;4.07;;;19.70;99.90;;;;;;5074212;28;20048;-90
2022/06/10 10:49:32;;;;;;;10.25;4.82;;;19.70;99.90;;;;;;5075466;28;20072;-89
2022/06/10 10:51:58;;;;;;;11.38;4.70;;;19.70;99.90;;;;;;5074161;28;20044;-86
2022/06/10 10:54:35;;;;;;;7.88;4.60;;;19.70;99.90;;;;;;5057505;28;20557;-87
2022/06/10 10:57:11;;;;;;;9.60;4.80;;;19.70;99.90;;;;;;5073830;28;20373;-86
2022/06/10 10:59:40;;;;;;;9.65;4.55;;;19.90;99.90;;;;;;5057388;28;20050;-89
2022/06/10 11:02:43;;;;;;;14.15;5.30;;;20.00;99.90;;;;;;5057057;28;20060;-88
2022/06/10 11:05:26;;;;;;;9.75;4.75;;;20.20;99.90;;;;;;5057276;28;20040;-88
2022/06/10 11:08:17;;;;;;;9.20;4.85;;;20.20;99.90;;;;;;5073717;28;20048;-88
2022/06/10 11:11:05;;;;;;;8.50;4.85;;;20.30;99.90;;;;;;5075577;28;20097;-91
2022/06/10 11:13:34;;;;;;;10.93;4.72;;;20.30;99.90;;;;;;5057450;28;20055;-87
2022/06/10 11:16:27;;;;;;;9.52;5.40;;;20.30;99.90;;;;;;5073890;28;20420;-91
2022/06/10 11:19:20;;;;;;;9.35;4.93;;;20.20;99.90;;;;;;5074985;28;20439;-86
2022/06/10 11:21:47;;;;;;;14.15;5.80;;;20.20;99.90;;;;;;5073081;28;20430;-88
2022/06/10 11:24:16;;;;;;;10.82;5.68;;;20.00;99.90;;;;;;5074193;28;20554;-88
2022/06/10 11:26:52;;;;;;;8.95;5.00;;;20.00;99.90;;;;;;5074826;28;20090;-86
2022/06/10 11:29:19;;;;;;;9.68;4.93;;;19.90;99.90;;;;;;5074514;28;20396;-90
2022/06/10 11:31:56;;;;;;;10.82;5.50;;;19.80;99.90;;;;;;5073140;28;20041;-87
2022/06/10 11:34:29;;;;;;;9.55;5.30;;;19.70;99.90;;;;;;5073438;28;20403;-87
2022/06/10 11:36:55;;;;;;;12.10;5.80;;;19.60;99.90;;;;;;5074120;28;20052;-91
2022/06/10 11:39:33;;;;;;;11.98;5.93;;;19.70;99.90;;;;;;5073042;28;20499;-88
2022/06/10 11:42:14;;;;;;;10.25;5.35;;;19.80;99.90;;;;;;5057011;28;20423;-90
2022/06/10 11:44:49;;;;;;;10.30;5.25;;;20.10;99.90;;;;;;5057006;28;20044;-88
2022/06/10 11:47:25;;;;;;;9.13;5.28;;;20.50;99.90;;;;;;5074867;28;20127;-87
2022/06/10 11:50:03;;;;;;;10.68;5.18;;;20.90;99.90;;;;;;5073149;28;20048;-87
2022/06/10 11:52:37;;;;;;;8.68;4.40;;;21.20;99.90;;;;;;5073336;28;20044;-88
2022/06/10 11:55:10;;;;;;;10.98;5.32;;;21.30;99.90;;;;;;5074245;28;20044;-88
2022/06/10 12:01:24;;;;;;;7.18;4.47;;;21.10;99.90;;;;;;5016614;28;20084;-87
2022/06/10 12:04:07;;;;;;;9.20;3.40;;;21.10;99.90;;;;;;5032011;28;20163;-86
2022/06/10 12:07:04;;;;;;;8.27;3.70;;;21.10;99.90;;;;;;5016226;28;20096;-89
2022/06/10 12:09:49;;;;;;;6.68;3.92;;;21.00;99.90;;;;;;4977266;28;20145;-88
2022/06/10 12:12:20;;;;;;;7.18;3.92;;;20.90;99.90;;;;;;4992918;28;20490;-87
2022/06/10 12:14:50;;;;;;;6.57;3.55;;;20.80;99.90;;;;;;5009585;28;20141;-89
2022/06/10 12:17:35;;;;;;;7.25;3.92;;;20.80;99.90;;;;;;5008970;28;20082;-88
2022/06/10 12:20:20;;;;;;;6.70;3.45;;;21.00;99.90;;;;;;4992425;28;20121;-87
2022/06/10 12:22:46;;;;;;;8.98;3.33;;;21.30;99.90;;;;;;5008730;28;20133;-87
2022/06/10 12:25:23;;;;;;;6.45;3.35;;;21.60;99.90;;;;;;4992545;28;20084;-87
2022/06/10 12:27:55;;;;;;;6.50;4.15;;;21.80;99.90;;;;;;5008941;28;20051;-88
2022/06/10 12:30:35;;;;;;;5.90;3.15;;;21.80;99.90;;;;;;4992658;28;20050;-91
2022/06/10 12:33:15;;;;;;;7.40;2.60;;;21.90;99.90;;;;;;5009164;28;20054;-89
2022/06/10 12:35:43;;;;;;;6.63;2.25;;;22.10;99.90;;;;;;5018895;28;20076;-86
2022/06/10 12:38:29;;;;;;;5.30;2.42;;;22.30;99.90;;;;;;5009989;28;20091;-89
2022/06/10 12:41:17;;;;;;;4.93;2.13;;;22.00;99.90;;;;;;5025363;28;20108;-89
2022/06/10 12:43:48;;;;;;;4.85;2.20;;;22.20;99.90;;;;;;5036120;28;20469;-85
2022/06/10 12:46:31;;;;;;;4.55;2.30;;;22.60;99.90;;;;;;5056015;28;20524;-87
2022/06/10 12:48:57;;;;;;;7.85;2.13;;;22.90;99.90;;;;;;5076544;28;20045;-88
2022/06/10 12:51:40;;;;;;;6.80;2.33;;;22.90;99.90;;;;;;5077032;28;20040;-90
2022/06/10 12:54:37;;;;;;;4.43;1.85;;;22.50;99.90;;;;;;5077640;28;20048;-89
2022/06/10 12:57:22;;;;;;;5.95;2.10;;;22.20;99.90;;;;;;5076843;28;20060;-89
2022/06/10 12:59:47;;;;;;;4.57;2.30;;;21.80;99.90;;;;;;5076420;28;20102;-89
2022/06/10 13:02:46;;;;;;;3.70;1.50;;;21.70;99.90;;;;;;5076482;28;20037;-88
2022/06/10 13:05:30;;;;;;;4.68;1.63;;;21.70;99.90;;;;;;5076657;28;20053;-90
2022/06/10 13:07:56;;;;;;;4.70;1.60;;;21.70;99.90;;;;;;5076677;28;20099;-90
2022/06/10 13:10:28;;;;;;;6.40;1.95;;;22.20;99.90;;;;;;5078231;28;20503;-89
2022/06/10 13:12:59;;;;;;;5.82;1.98;;;22.20;99.90;;;;;;5077560;28;20059;-90
2022/06/10 13:15:31;;;;;;;4.97;1.75;;;22.70;99.90;;;;;;5077671;28;20127;-89
2022/06/10 13:18:05;;;;;;;6.35;1.80;;;22.80;99.90;;;;;;5077925;28;20052;-88
2022/06/10 13:20:38;;;;;;;7.03;1.63;;;22.90;99.90;;;;;;5077603;28;20048;-90
2022/06/10 13:23:12;;;;;;;3.88;1.65;;;23.20;99.90;;;;;;5077401;28;20055;-87
2022/06/10 13:25:38;;;;;;;5.35;1.90;;;23.50;99.90;;;;;;5075734;28;20043;-90
2022/06/10 13:28:17;;;;;;;5.68;1.70;;;23.50;99.90;;;;;;5076057;28;20094;-89
2022/06/10 13:30:43;;;;;;;7.22;2.20;;;23.40;99.90;;;;;;5077991;28;20041;-89
2022/06/10 13:33:15;;;;;;;5.75;2.15;;;23.00;99.90;;;;;;5076339;28;20044;-90